sensor_id;sensor_type;location;lat;lon;timestamp;P1;durP1;ratioP1;P2;durP2;ratioP2
24357;SDS011;13668;52.154;5.580;2023-02-11T00:00:12;19.48;;;5.78;;
24357;SDS011;13668;52.154;5.580;2023-02-11T00:02:38;20.27;;;6.07;;
24357;SDS011;13668;52.154;5.580;2023-02-11T00:05:04;18.10;;;6.38;;
24357;SDS011;13668;52.154;5.580;2023-02-11T00:07:31;19.35;;;6.10;;
24357;SDS011;13668;52.154;5.580;2023-02-11T00:09:58;22.45;;;6.38;;
24357;SDS011;13668;52.154;5.580;2023-02-11T00:12:24;14.77;;;7.03;;
24357;SDS011;13668;52.154;5.580;2023-02-11T00:14:51;19.67;;;5.32;;
24357;SDS011;13668;52.154;5.580;2023-02-11T00:17:17;19.17;;;5.70;;
24357;SDS011;13668;52.154;5.580;2023-02-11T00:19:43;16.13;;;6.13;;
24357;SDS011;13668;52.154;5.580;2023-02-11T00:22:09;21.88;;;6.05;;
24357;SDS011;13668;52.154;5.580;2023-02-11T00:24:35;13.90;;;4.78;;
24357;SDS011;13668;52.154;5.580;2023-02-11T00:27:01;21.77;;;5.32;;
24357;SDS011;13668;52.154;5.580;2023-02-11T00:29:27;17.70;;;5.60;;
24357;SDS011;13668;52.154;5.580;2023-02-11T00:31:53;20.33;;;4.97;;
24357;SDS011;13668;52.154;5.580;2023-02-11T00:34:19;19.55;;;5.03;;
24357;SDS011;13668;52.154;5.580;2023-02-11T00:36:45;17.00;;;5.03;;
24357;SDS011;13668;52.154;5.580;2023-02-11T00:39:13;22.67;;;5.03;;
24357;SDS011;13668;52.154;5.580;2023-02-11T00:41:39;23.42;;;5.45;;
24357;SDS011;13668;52.154;5.580;2023-02-11T00:44:05;20.33;;;5.07;;
24357;SDS011;13668;52.154;5.580;2023-02-11T00:46:31;18.48;;;5.55;;
24357;SDS011;13668;52.154;5.580;2023-02-11T00:48:57;19.27;;;5.43;;
24357;SDS011;13668;52.154;5.580;2023-02-11T00:51:24;18.88;;;4.60;;
24357;SDS011;13668;52.154;5.580;2023-02-11T00:53:50;16.17;;;4.63;;
24357;SDS011;13668;52.154;5.580;2023-02-11T00:56:17;18.92;;;5.05;;
24357;SDS011;13668;52.154;5.580;2023-02-11T00:58:43;17.00;;;5.13;;
24357;SDS011;13668;52.154;5.580;2023-02-11T01:01:09;22.40;;;6.78;;
24357;SDS011;13668;52.154;5.580;2023-02-11T01:03:36;18.70;;;5.50;;
24357;SDS011;13668;52.154;5.580;2023-02-11T01:06:02;17.67;;;5.53;;
24357;SDS011;13668;52.154;5.580;2023-02-11T01:08:28;18.85;;;6.00;;
24357;SDS011;13668;52.154;5.580;2023-02-11T01:10:55;22.40;;;5.07;;
24357;SDS011;13668;52.154;5.580;2023-02-11T01:13:21;21.73;;;5.15;;
24357;SDS011;13668;52.154;5.580;2023-02-11T01:15:47;17.40;;;4.97;;
24357;SDS011;13668;52.154;5.580;2023-02-11T01:18:13;26.05;;;7.07;;
24357;SDS011;13668;52.154;5.580;2023-02-11T01:20:40;18.20;;;6.10;;
24357;SDS011;13668;52.154;5.580;2023-02-11T01:23:06;22.10;;;5.18;;
24357;SDS011;13668;52.154;5.580;2023-02-11T01:25:32;14.63;;;4.95;;
24357;SDS011;13668;52.154;5.580;2023-02-11T01:27:58;23.85;;;5.53;;
24357;SDS011;13668;52.154;5.580;2023-02-11T01:30:24;29.48;;;5.75;;
24357;SDS011;13668;52.154;5.580;2023-02-11T01:32:50;14.82;;;5.50;;
24357;SDS011;13668;52.154;5.580;2023-02-11T01:35:16;18.85;;;5.95;;
24357;SDS011;13668;52.154;5.580;2023-02-11T01:37:42;16.75;;;6.75;;
24357;SDS011;13668;52.154;5.580;2023-02-11T01:40:11;22.20;;;6.30;;
24357;SDS011;13668;52.154;5.580;2023-02-11T01:42:37;21.02;;;6.05;;
24357;SDS011;13668;52.154;5.580;2023-02-11T01:47:51;16.98;;;5.50;;
24357;SDS011;13668;52.154;5.580;2023-02-11T01:50:17;19.40;;;5.68;;
24357;SDS011;13668;52.154;5.580;2023-02-11T01:52:43;19.05;;;5.95;;
24357;SDS011;13668;52.154;5.580;2023-02-11T01:55:11;18.05;;;5.82;;
24357;SDS011;13668;52.154;5.580;2023-02-11T01:57:56;17.73;;;6.30;;
24357;SDS011;13668;52.154;5.580;2023-02-11T02:08:15;22.50;;;6.00;;
24357;SDS011;13668;52.154;5.580;2023-02-11T02:10:43;17.80;;;6.80;;
24357;SDS011;13668;52.154;5.580;2023-02-11T02:13:13;20.15;;;6.38;;
24357;SDS011;13668;52.154;5.580;2023-02-11T02:15:58;19.10;;;6.03;;
24357;SDS011;13668;52.154;5.580;2023-02-11T02:21:20;16.80;;;6.93;;
24357;SDS011;13668;52.154;5.580;2023-02-11T02:26:45;18.25;;;6.82;;
24357;SDS011;13668;52.154;5.580;2023-02-11T02:29:29;30.08;;;7.30;;
24357;SDS011;13668;52.154;5.580;2023-02-11T02:37:14;16.10;;;6.50;;
24357;SDS011;13668;52.154;5.580;2023-02-11T02:39:42;21.95;;;7.38;;
24357;SDS011;13668;52.154;5.580;2023-02-11T02:42:09;22.60;;;6.78;;
24357;SDS011;13668;52.154;5.580;2023-02-11T02:44:35;14.38;;;6.20;;
24357;SDS011;13668;52.154;5.580;2023-02-11T02:47:01;19.08;;;7.82;;
24357;SDS011;13668;52.154;5.580;2023-02-11T02:49:27;16.52;;;7.35;;
24357;SDS011;13668;52.154;5.580;2023-02-11T02:52:01;21.35;;;6.70;;
24357;SDS011;13668;52.154;5.580;2023-02-11T03:05:20;19.85;;;7.25;;
24357;SDS011;13668;52.154;5.580;2023-02-11T03:07:50;21.85;;;7.57;;
24357;SDS011;13668;52.154;5.580;2023-02-11T03:12:43;20.08;;;8.05;;
24357;SDS011;13668;52.154;5.580;2023-02-11T03:15:10;23.45;;;7.22;;
24357;SDS011;13668;52.154;5.580;2023-02-11T03:17:38;23.10;;;6.85;;
24357;SDS011;13668;52.154;5.580;2023-02-11T03:20:05;12.50;;;6.50;;
24357;SDS011;13668;52.154;5.580;2023-02-11T03:22:39;15.00;;;7.15;;
24357;SDS011;13668;52.154;5.580;2023-02-11T03:25:05;23.08;;;7.80;;
24357;SDS011;13668;52.154;5.580;2023-02-11T03:27:40;26.38;;;8.25;;
24357;SDS011;13668;52.154;5.580;2023-02-11T03:30:12;14.20;;;8.10;;
24357;SDS011;13668;52.154;5.580;2023-02-11T03:32:48;28.38;;;8.27;;
24357;SDS011;13668;52.154;5.580;2023-02-11T03:37:47;16.70;;;8.05;;
24357;SDS011;13668;52.154;5.580;2023-02-11T03:40:16;30.27;;;9.60;;
24357;SDS011;13668;52.154;5.580;2023-02-11T03:42:45;21.35;;;8.43;;
24357;SDS011;13668;52.154;5.580;2023-02-11T03:45:14;26.42;;;9.82;;
24357;SDS011;13668;52.154;5.580;2023-02-11T03:47:42;20.38;;;8.65;;
24357;SDS011;13668;52.154;5.580;2023-02-11T03:50:10;22.80;;;8.82;;
24357;SDS011;13668;52.154;5.580;2023-02-11T03:52:37;21.88;;;9.32;;
24357;SDS011;13668;52.154;5.580;2023-02-11T03:55:08;17.48;;;8.52;;
24357;SDS011;13668;52.154;5.580;2023-02-11T03:57:36;23.90;;;9.80;;
24357;SDS011;13668;52.154;5.580;2023-02-11T04:00:03;21.92;;;10.18;;
24357;SDS011;13668;52.154;5.580;2023-02-11T04:02:30;18.45;;;9.63;;
24357;SDS011;13668;52.154;5.580;2023-02-11T04:04:57;18.15;;;9.98;;
24357;SDS011;13668;52.154;5.580;2023-02-11T04:07:23;24.67;;;9.43;;
24357;SDS011;13668;52.154;5.580;2023-02-11T04:09:49;25.73;;;10.07;;
24357;SDS011;13668;52.154;5.580;2023-02-11T04:12:16;23.55;;;10.50;;
24357;SDS011;13668;52.154;5.580;2023-02-11T04:14:42;32.00;;;11.43;;
24357;SDS011;13668;52.154;5.580;2023-02-11T04:17:08;33.60;;;12.88;;
24357;SDS011;13668;52.154;5.580;2023-02-11T04:19:34;30.13;;;12.68;;
24357;SDS011;13668;52.154;5.580;2023-02-11T04:22:00;26.27;;;11.52;;
24357;SDS011;13668;52.154;5.580;2023-02-11T04:24:26;28.73;;;13.70;;
24357;SDS011;13668;52.154;5.580;2023-02-11T04:26:52;30.05;;;12.68;;
24357;SDS011;13668;52.154;5.580;2023-02-11T04:29:21;31.73;;;13.80;;
24357;SDS011;13668;52.154;5.580;2023-02-11T04:31:47;30.90;;;13.48;;
24357;SDS011;13668;52.154;5.580;2023-02-11T04:34:14;33.22;;;13.88;;
24357;SDS011;13668;52.154;5.580;2023-02-11T04:36:40;33.10;;;13.55;;
24357;SDS011;13668;52.154;5.580;2023-02-11T04:39:06;25.48;;;12.85;;
24357;SDS011;13668;52.154;5.580;2023-02-11T04:41:32;31.13;;;13.60;;
24357;SDS011;13668;52.154;5.580;2023-02-11T04:43:58;28.58;;;14.20;;
24357;SDS011;13668;52.154;5.580;2023-02-11T04:46:24;27.02;;;15.65;;
24357;SDS011;13668;52.154;5.580;2023-02-11T04:48:50;30.05;;;14.48;;
24357;SDS011;13668;52.154;5.580;2023-02-11T04:51:16;32.97;;;14.43;;
24357;SDS011;13668;52.154;5.580;2023-02-11T04:53:42;32.40;;;14.95;;
24357;SDS011;13668;52.154;5.580;2023-02-11T04:56:11;32.58;;;15.40;;
24357;SDS011;13668;52.154;5.580;2023-02-11T04:58:37;29.65;;;15.23;;
24357;SDS011;13668;52.154;5.580;2023-02-11T05:01:06;33.35;;;15.38;;
24357;SDS011;13668;52.154;5.580;2023-02-11T05:03:35;26.98;;;13.93;;
24357;SDS011;13668;52.154;5.580;2023-02-11T05:06:04;29.00;;;14.45;;
24357;SDS011;13668;52.154;5.580;2023-02-11T05:08:30;36.22;;;16.33;;
24357;SDS011;13668;52.154;5.580;2023-02-11T05:10:57;30.17;;;15.18;;
24357;SDS011;13668;52.154;5.580;2023-02-11T05:13:23;28.50;;;16.00;;
24357;SDS011;13668;52.154;5.580;2023-02-11T05:15:48;31.15;;;15.23;;
24357;SDS011;13668;52.154;5.580;2023-02-11T05:18:14;34.35;;;15.95;;
24357;SDS011;13668;52.154;5.580;2023-02-11T05:20:41;33.65;;;15.88;;
24357;SDS011;13668;52.154;5.580;2023-02-11T05:23:07;36.42;;;15.18;;
24357;SDS011;13668;52.154;5.580;2023-02-11T05:25:33;28.30;;;16.35;;
24357;SDS011;13668;52.154;5.580;2023-02-11T05:27:59;34.05;;;15.95;;
24357;SDS011;13668;52.154;5.580;2023-02-11T05:30:25;30.33;;;15.98;;
24357;SDS011;13668;52.154;5.580;2023-02-11T05:32:51;29.02;;;17.23;;
24357;SDS011;13668;52.154;5.580;2023-02-11T05:35:18;27.60;;;16.80;;
24357;SDS011;13668;52.154;5.580;2023-02-11T05:37:43;39.10;;;16.35;;
24357;SDS011;13668;52.154;5.580;2023-02-11T05:40:10;40.95;;;17.52;;
24357;SDS011;13668;52.154;5.580;2023-02-11T05:42:36;39.53;;;17.65;;
24357;SDS011;13668;52.154;5.580;2023-02-11T05:45:02;38.25;;;17.45;;
24357;SDS011;13668;52.154;5.580;2023-02-11T05:47:28;38.67;;;18.60;;
24357;SDS011;13668;52.154;5.580;2023-02-11T05:49:54;29.83;;;16.70;;
24357;SDS011;13668;52.154;5.580;2023-02-11T05:52:21;39.72;;;18.92;;
24357;SDS011;13668;52.154;5.580;2023-02-11T05:54:47;47.35;;;21.10;;
24357;SDS011;13668;52.154;5.580;2023-02-11T05:57:13;35.72;;;17.17;;
24357;SDS011;13668;52.154;5.580;2023-02-11T05:59:39;31.92;;;16.25;;
24357;SDS011;13668;52.154;5.580;2023-02-11T06:02:05;38.78;;;19.58;;
24357;SDS011;13668;52.154;5.580;2023-02-11T06:04:34;42.28;;;18.23;;
24357;SDS011;13668;52.154;5.580;2023-02-11T06:07:01;44.90;;;20.08;;
24357;SDS011;13668;52.154;5.580;2023-02-11T06:09:26;40.03;;;19.92;;
24357;SDS011;13668;52.154;5.580;2023-02-11T06:11:52;43.53;;;20.05;;
24357;SDS011;13668;52.154;5.580;2023-02-11T06:14:18;35.03;;;19.02;;
24357;SDS011;13668;52.154;5.580;2023-02-11T06:16:44;36.42;;;18.80;;
24357;SDS011;13668;52.154;5.580;2023-02-11T06:19:11;40.65;;;19.60;;
24357;SDS011;13668;52.154;5.580;2023-02-11T06:21:37;39.00;;;20.10;;
24357;SDS011;13668;52.154;5.580;2023-02-11T06:24:04;37.13;;;19.52;;
24357;SDS011;13668;52.154;5.580;2023-02-11T06:26:30;42.80;;;20.35;;
24357;SDS011;13668;52.154;5.580;2023-02-11T06:28:58;44.50;;;21.88;;
24357;SDS011;13668;52.154;5.580;2023-02-11T06:31:24;37.10;;;19.42;;
24357;SDS011;13668;52.154;5.580;2023-02-11T06:33:50;40.40;;;19.10;;
24357;SDS011;13668;52.154;5.580;2023-02-11T06:36:19;47.40;;;21.30;;
24357;SDS011;13668;52.154;5.580;2023-02-11T06:38:45;43.95;;;19.98;;
24357;SDS011;13668;52.154;5.580;2023-02-11T06:41:12;42.60;;;21.10;;
24357;SDS011;13668;52.154;5.580;2023-02-11T06:43:39;39.63;;;20.13;;
24357;SDS011;13668;52.154;5.580;2023-02-11T06:46:05;38.17;;;19.83;;
24357;SDS011;13668;52.154;5.580;2023-02-11T06:48:32;49.80;;;22.45;;
24357;SDS011;13668;52.154;5.580;2023-02-11T06:51:00;39.47;;;20.67;;
24357;SDS011;13668;52.154;5.580;2023-02-11T06:53:27;51.35;;;21.35;;
24357;SDS011;13668;52.154;5.580;2023-02-11T06:55:53;43.20;;;22.33;;
24357;SDS011;13668;52.154;5.580;2023-02-11T06:58:19;43.17;;;20.48;;
24357;SDS011;13668;52.154;5.580;2023-02-11T07:00:48;42.83;;;21.58;;
24357;SDS011;13668;52.154;5.580;2023-02-11T07:03:16;46.08;;;21.05;;
24357;SDS011;13668;52.154;5.580;2023-02-11T07:05:42;46.10;;;21.67;;
24357;SDS011;13668;52.154;5.580;2023-02-11T07:08:08;47.47;;;22.25;;
24357;SDS011;13668;52.154;5.580;2023-02-11T07:10:34;45.80;;;22.42;;
24357;SDS011;13668;52.154;5.580;2023-02-11T07:13:03;47.28;;;22.42;;
24357;SDS011;13668;52.154;5.580;2023-02-11T07:15:29;48.30;;;22.48;;
24357;SDS011;13668;52.154;5.580;2023-02-11T07:17:55;50.88;;;24.58;;
24357;SDS011;13668;52.154;5.580;2023-02-11T07:20:21;42.72;;;21.10;;
24357;SDS011;13668;52.154;5.580;2023-02-11T07:22:46;42.75;;;22.40;;
24357;SDS011;13668;52.154;5.580;2023-02-11T07:25:13;45.63;;;22.00;;
24357;SDS011;13668;52.154;5.580;2023-02-11T07:27:39;50.85;;;21.95;;
24357;SDS011;13668;52.154;5.580;2023-02-11T07:30:05;52.25;;;23.50;;
24357;SDS011;13668;52.154;5.580;2023-02-11T07:32:31;46.33;;;22.63;;
24357;SDS011;13668;52.154;5.580;2023-02-11T07:34:57;44.00;;;22.98;;
24357;SDS011;13668;52.154;5.580;2023-02-11T07:37:23;44.63;;;23.45;;
24357;SDS011;13668;52.154;5.580;2023-02-11T07:39:49;49.45;;;23.20;;
24357;SDS011;13668;52.154;5.580;2023-02-11T07:42:15;43.15;;;21.77;;
24357;SDS011;13668;52.154;5.580;2023-02-11T07:44:41;45.70;;;23.30;;
24357;SDS011;13668;52.154;5.580;2023-02-11T07:47:06;43.78;;;21.90;;
24357;SDS011;13668;52.154;5.580;2023-02-11T07:49:35;40.42;;;20.88;;
24357;SDS011;13668;52.154;5.580;2023-02-11T07:52:01;46.67;;;23.73;;
24357;SDS011;13668;52.154;5.580;2023-02-11T07:54:27;41.40;;;22.10;;
24357;SDS011;13668;52.154;5.580;2023-02-11T07:56:53;48.50;;;22.10;;
24357;SDS011;13668;52.154;5.580;2023-02-11T07:59:19;40.10;;;21.70;;
24357;SDS011;13668;52.154;5.580;2023-02-11T08:01:45;44.75;;;22.13;;
24357;SDS011;13668;52.154;5.580;2023-02-11T08:04:11;47.60;;;22.60;;
24357;SDS011;13668;52.154;5.580;2023-02-11T08:06:39;47.92;;;21.77;;
24357;SDS011;13668;52.154;5.580;2023-02-11T08:09:06;44.88;;;22.77;;
24357;SDS011;13668;52.154;5.580;2023-02-11T08:11:33;38.13;;;20.42;;
24357;SDS011;13668;52.154;5.580;2023-02-11T08:13:59;41.38;;;21.40;;
24357;SDS011;13668;52.154;5.580;2023-02-11T08:16:30;47.00;;;22.15;;
24357;SDS011;13668;52.154;5.580;2023-02-11T08:18:57;45.65;;;23.00;;
24357;SDS011;13668;52.154;5.580;2023-02-11T08:21:23;45.85;;;23.35;;
24357;SDS011;13668;52.154;5.580;2023-02-11T08:23:49;41.33;;;22.92;;
24357;SDS011;13668;52.154;5.580;2023-02-11T08:26:16;47.13;;;23.05;;
24357;SDS011;13668;52.154;5.580;2023-02-11T08:28:43;47.75;;;23.35;;
24357;SDS011;13668;52.154;5.580;2023-02-11T08:31:13;46.08;;;23.85;;
24357;SDS011;13668;52.154;5.580;2023-02-11T08:33:40;43.30;;;23.60;;
24357;SDS011;13668;52.154;5.580;2023-02-11T08:36:07;48.58;;;22.63;;
24357;SDS011;13668;52.154;5.580;2023-02-11T08:38:33;46.15;;;22.58;;
24357;SDS011;13668;52.154;5.580;2023-02-11T08:40:59;50.08;;;25.40;;
24357;SDS011;13668;52.154;5.580;2023-02-11T08:43:25;46.22;;;25.08;;
24357;SDS011;13668;52.154;5.580;2023-02-11T08:45:51;47.65;;;26.05;;
24357;SDS011;13668;52.154;5.580;2023-02-11T08:48:17;48.20;;;24.00;;
24357;SDS011;13668;52.154;5.580;2023-02-11T08:50:46;45.35;;;24.77;;
24357;SDS011;13668;52.154;5.580;2023-02-11T08:53:12;40.92;;;23.83;;
24357;SDS011;13668;52.154;5.580;2023-02-11T08:55:38;51.00;;;25.00;;
24357;SDS011;13668;52.154;5.580;2023-02-11T08:58:03;46.70;;;25.50;;
24357;SDS011;13668;52.154;5.580;2023-02-11T09:00:33;39.72;;;24.02;;
24357;SDS011;13668;52.154;5.580;2023-02-11T09:02:59;44.95;;;23.85;;
24357;SDS011;13668;52.154;5.580;2023-02-11T09:05:25;50.63;;;26.65;;
24357;SDS011;13668;52.154;5.580;2023-02-11T09:07:51;47.85;;;25.63;;
24357;SDS011;13668;52.154;5.580;2023-02-11T09:10:17;45.78;;;25.75;;
24357;SDS011;13668;52.154;5.580;2023-02-11T09:12:43;46.83;;;25.95;;
24357;SDS011;13668;52.154;5.580;2023-02-11T09:15:09;49.53;;;25.65;;
24357;SDS011;13668;52.154;5.580;2023-02-11T09:17:35;49.13;;;26.73;;
24357;SDS011;13668;52.154;5.580;2023-02-11T09:20:02;51.75;;;27.83;;
24357;SDS011;13668;52.154;5.580;2023-02-11T09:22:28;45.65;;;25.20;;
24357;SDS011;13668;52.154;5.580;2023-02-11T09:24:54;46.78;;;26.38;;
24357;SDS011;13668;52.154;5.580;2023-02-11T09:27:20;50.53;;;25.35;;
24357;SDS011;13668;52.154;5.580;2023-02-11T09:29:46;48.80;;;26.08;;
24357;SDS011;13668;52.154;5.580;2023-02-11T09:32:12;41.60;;;23.58;;
24357;SDS011;13668;52.154;5.580;2023-02-11T09:34:38;41.63;;;23.65;;
24357;SDS011;13668;52.154;5.580;2023-02-11T09:37:03;42.00;;;22.98;;
24357;SDS011;13668;52.154;5.580;2023-02-11T09:39:30;43.88;;;23.38;;
24357;SDS011;13668;52.154;5.580;2023-02-11T09:44:31;40.03;;;22.75;;
24357;SDS011;13668;52.154;5.580;2023-02-11T09:50:01;38.25;;;21.85;;
24357;SDS011;13668;52.154;5.580;2023-02-11T09:52:32;41.28;;;23.15;;
24357;SDS011;13668;52.154;5.580;2023-02-11T09:55:05;40.70;;;22.02;;
24357;SDS011;13668;52.154;5.580;2023-02-11T09:57:32;42.78;;;22.77;;
24357;SDS011;13668;52.154;5.580;2023-02-11T09:59:59;37.47;;;23.85;;
24357;SDS011;13668;52.154;5.580;2023-02-11T10:05:19;36.55;;;21.20;;
24357;SDS011;13668;52.154;5.580;2023-02-11T10:10:58;33.83;;;20.88;;
24357;SDS011;13668;52.154;5.580;2023-02-11T10:23:47;24.08;;;15.05;;
24357;SDS011;13668;52.154;5.580;2023-02-11T10:26:16;25.27;;;16.42;;
24357;SDS011;13668;52.154;5.580;2023-02-11T10:28:46;22.77;;;14.70;;
24357;SDS011;13668;52.154;5.580;2023-02-11T10:31:58;23.67;;;14.77;;
24357;SDS011;13668;52.154;5.580;2023-02-11T10:34:00;22.92;;;14.50;;
24357;SDS011;13668;52.154;5.580;2023-02-11T10:36:28;25.45;;;13.82;;
24357;SDS011;13668;52.154;5.580;2023-02-11T10:38:57;20.88;;;13.02;;
24357;SDS011;13668;52.154;5.580;2023-02-11T10:41:25;22.80;;;14.52;;
24357;SDS011;13668;52.154;5.580;2023-02-11T10:43:52;24.27;;;13.13;;
24357;SDS011;13668;52.154;5.580;2023-02-11T10:46:20;21.27;;;13.65;;
24357;SDS011;13668;52.154;5.580;2023-02-11T10:48:51;17.30;;;13.93;;
24357;SDS011;13668;52.154;5.580;2023-02-11T10:51:19;19.77;;;12.85;;
24357;SDS011;13668;52.154;5.580;2023-02-11T10:53:46;20.85;;;13.25;;
24357;SDS011;13668;52.154;5.580;2023-02-11T10:56:20;17.90;;;12.27;;
24357;SDS011;13668;52.154;5.580;2023-02-11T11:01:37;18.23;;;12.50;;
24357;SDS011;13668;52.154;5.580;2023-02-11T11:04:04;20.35;;;13.98;;
24357;SDS011;13668;52.154;5.580;2023-02-11T11:06:31;20.20;;;13.05;;
24357;SDS011;13668;52.154;5.580;2023-02-11T11:08:58;18.92;;;12.98;;
24357;SDS011;13668;52.154;5.580;2023-02-11T11:11:25;21.15;;;11.93;;
24357;SDS011;13668;52.154;5.580;2023-02-11T11:18:47;24.77;;;14.23;;
24357;SDS011;13668;52.154;5.580;2023-02-11T11:21:18;19.70;;;12.27;;
24357;SDS011;13668;52.154;5.580;2023-02-11T11:23:48;21.67;;;12.95;;
24357;SDS011;13668;52.154;5.580;2023-02-11T11:26:15;21.83;;;12.27;;
24357;SDS011;13668;52.154;5.580;2023-02-11T11:28:49;21.75;;;12.50;;
24357;SDS011;13668;52.154;5.580;2023-02-11T11:31:16;19.98;;;12.27;;
24357;SDS011;13668;52.154;5.580;2023-02-11T11:33:43;18.10;;;12.32;;
24357;SDS011;13668;52.154;5.580;2023-02-11T11:36:15;20.48;;;13.60;;
24357;SDS011;13668;52.154;5.580;2023-02-11T11:38:43;17.50;;;11.75;;
24357;SDS011;13668;52.154;5.580;2023-02-11T11:43:55;16.95;;;12.18;;
24357;SDS011;13668;52.154;5.580;2023-02-11T11:46:22;19.83;;;11.90;;
24357;SDS011;13668;52.154;5.580;2023-02-11T11:48:49;18.75;;;12.18;;
24357;SDS011;13668;52.154;5.580;2023-02-11T11:51:22;18.60;;;12.65;;
24357;SDS011;13668;52.154;5.580;2023-02-11T11:54:00;20.75;;;12.07;;
24357;SDS011;13668;52.154;5.580;2023-02-11T11:56:29;16.85;;;11.93;;
24357;SDS011;13668;52.154;5.580;2023-02-11T11:58:58;14.85;;;11.32;;
24357;SDS011;13668;52.154;5.580;2023-02-11T12:01:41;15.05;;;11.40;;
24357;SDS011;13668;52.154;5.580;2023-02-11T12:06:50;15.15;;;10.68;;
24357;SDS011;13668;52.154;5.580;2023-02-11T12:15:21;17.83;;;11.40;;
24357;SDS011;13668;52.154;5.580;2023-02-11T12:22:23;12.95;;;9.95;;
24357;SDS011;13668;52.154;5.580;2023-02-11T12:24:53;14.82;;;10.13;;
24357;SDS011;13668;52.154;5.580;2023-02-11T12:33:05;12.95;;;9.77;;
24357;SDS011;13668;52.154;5.580;2023-02-11T12:38:06;18.35;;;9.55;;
24357;SDS011;13668;52.154;5.580;2023-02-11T12:40:44;9.93;;;8.27;;
24357;SDS011;13668;52.154;5.580;2023-02-11T12:43:17;12.30;;;8.45;;
24357;SDS011;13668;52.154;5.580;2023-02-11T12:58:43;12.85;;;8.82;;
24357;SDS011;13668;52.154;5.580;2023-02-11T13:01:14;14.00;;;8.27;;
24357;SDS011;13668;52.154;5.580;2023-02-11T13:03:52;15.32;;;8.50;;
24357;SDS011;13668;52.154;5.580;2023-02-11T13:06:21;14.85;;;8.73;;
24357;SDS011;13668;52.154;5.580;2023-02-11T13:08:51;11.77;;;8.25;;
24357;SDS011;13668;52.154;5.580;2023-02-11T13:11:23;15.98;;;8.82;;
24357;SDS011;13668;52.154;5.580;2023-02-11T13:13:54;11.93;;;9.07;;
24357;SDS011;13668;52.154;5.580;2023-02-11T13:16:35;9.45;;;7.93;;
24357;SDS011;13668;52.154;5.580;2023-02-11T13:27:07;10.73;;;8.18;;
24357;SDS011;13668;52.154;5.580;2023-02-11T13:32:19;12.32;;;8.15;;
24357;SDS011;13668;52.154;5.580;2023-02-11T13:37:12;12.57;;;8.75;;
24357;SDS011;13668;52.154;5.580;2023-02-11T13:39:54;11.32;;;8.07;;
24357;SDS011;13668;52.154;5.580;2023-02-11T13:42:20;11.57;;;8.98;;
24357;SDS011;13668;52.154;5.580;2023-02-11T13:44:46;12.10;;;8.30;;
24357;SDS011;13668;52.154;5.580;2023-02-11T13:47:21;9.80;;;8.23;;
24357;SDS011;13668;52.154;5.580;2023-02-11T13:49:50;10.32;;;8.00;;
24357;SDS011;13668;52.154;5.580;2023-02-11T13:52:21;10.52;;;8.45;;
24357;SDS011;13668;52.154;5.580;2023-02-11T13:54:48;9.65;;;7.78;;
24357;SDS011;13668;52.154;5.580;2023-02-11T13:59:46;13.93;;;9.00;;
24357;SDS011;13668;52.154;5.580;2023-02-11T14:10:48;12.45;;;8.52;;
24357;SDS011;13668;52.154;5.580;2023-02-11T14:15:47;10.30;;;8.35;;
24357;SDS011;13668;52.154;5.580;2023-02-11T14:21:14;11.48;;;9.85;;
24357;SDS011;13668;52.154;5.580;2023-02-11T14:23:41;13.10;;;9.07;;
24357;SDS011;13668;52.154;5.580;2023-02-11T14:28:33;10.77;;;8.70;;
24357;SDS011;13668;52.154;5.580;2023-02-11T14:31:10;11.63;;;8.85;;
24357;SDS011;13668;52.154;5.580;2023-02-11T14:39:07;11.18;;;8.13;;
24357;SDS011;13668;52.154;5.580;2023-02-11T14:41:39;11.88;;;7.88;;
24357;SDS011;13668;52.154;5.580;2023-02-11T14:44:11;13.70;;;8.13;;
24357;SDS011;13668;52.154;5.580;2023-02-11T14:46:40;11.98;;;8.43;;
24357;SDS011;13668;52.154;5.580;2023-02-11T14:49:11;10.88;;;7.45;;
24357;SDS011;13668;52.154;5.580;2023-02-11T14:51:38;9.02;;;7.45;;
24357;SDS011;13668;52.154;5.580;2023-02-11T14:54:10;11.95;;;7.90;;
24357;SDS011;13668;52.154;5.580;2023-02-11T14:56:39;10.80;;;7.75;;
24357;SDS011;13668;52.154;5.580;2023-02-11T14:59:17;9.57;;;7.88;;
24357;SDS011;13668;52.154;5.580;2023-02-11T15:01:45;9.80;;;7.63;;
24357;SDS011;13668;52.154;5.580;2023-02-11T15:06:52;9.95;;;8.50;;
24357;SDS011;13668;52.154;5.580;2023-02-11T15:09:20;12.80;;;8.32;;
24357;SDS011;13668;52.154;5.580;2023-02-11T15:11:51;10.15;;;8.60;;
24357;SDS011;13668;52.154;5.580;2023-02-11T15:14:20;12.75;;;8.57;;
24357;SDS011;13668;52.154;5.580;2023-02-11T15:16:48;12.73;;;10.85;;
24357;SDS011;13668;52.154;5.580;2023-02-11T15:19:25;17.10;;;10.70;;
24357;SDS011;13668;52.154;5.580;2023-02-11T15:21:53;15.07;;;10.85;;
24357;SDS011;13668;52.154;5.580;2023-02-11T15:29:35;17.35;;;9.93;;
24357;SDS011;13668;52.154;5.580;2023-02-11T15:32:23;10.60;;;8.90;;
24357;SDS011;13668;52.154;5.580;2023-02-11T15:34:49;12.73;;;8.93;;
24357;SDS011;13668;52.154;5.580;2023-02-11T15:39:45;12.23;;;7.70;;
24357;SDS011;13668;52.154;5.580;2023-02-11T15:42:22;13.80;;;8.27;;
24357;SDS011;13668;52.154;5.580;2023-02-11T15:44:49;11.30;;;8.15;;
24357;SDS011;13668;52.154;5.580;2023-02-11T15:47:32;10.80;;;8.45;;
24357;SDS011;13668;52.154;5.580;2023-02-11T15:49:58;11.35;;;7.63;;
24357;SDS011;13668;52.154;5.580;2023-02-11T15:52:25;13.68;;;8.13;;
24357;SDS011;13668;52.154;5.580;2023-02-11T15:54:52;10.73;;;7.63;;
24357;SDS011;13668;52.154;5.580;2023-02-11T15:57:19;8.90;;;8.00;;
24357;SDS011;13668;52.154;5.580;2023-02-11T15:59:47;9.57;;;7.72;;
24357;SDS011;13668;52.154;5.580;2023-02-11T16:02:18;14.15;;;8.13;;
24357;SDS011;13668;52.154;5.580;2023-02-11T16:04:50;12.32;;;7.47;;
24357;SDS011;13668;52.154;5.580;2023-02-11T16:10:01;10.95;;;7.82;;
24357;SDS011;13668;52.154;5.580;2023-02-11T16:12:27;11.43;;;7.88;;
24357;SDS011;13668;52.154;5.580;2023-02-11T16:14:54;10.75;;;8.23;;
24357;SDS011;13668;52.154;5.580;2023-02-11T16:17:24;12.15;;;7.97;;
24357;SDS011;13668;52.154;5.580;2023-02-11T16:19:51;11.05;;;8.25;;
24357;SDS011;13668;52.154;5.580;2023-02-11T16:22:19;13.32;;;8.10;;
24357;SDS011;13668;52.154;5.580;2023-02-11T16:24:47;12.20;;;8.00;;
24357;SDS011;13668;52.154;5.580;2023-02-11T16:27:27;10.48;;;8.32;;
24357;SDS011;13668;52.154;5.580;2023-02-11T16:29:54;11.98;;;8.77;;
24357;SDS011;13668;52.154;5.580;2023-02-11T16:32:22;12.95;;;10.50;;
24357;SDS011;13668;52.154;5.580;2023-02-11T16:34:48;19.92;;;10.93;;
24357;SDS011;13668;52.154;5.580;2023-02-11T16:37:14;13.13;;;10.13;;
24357;SDS011;13668;52.154;5.580;2023-02-11T16:39:40;14.60;;;11.98;;
24357;SDS011;13668;52.154;5.580;2023-02-11T16:42:06;13.07;;;11.43;;
24357;SDS011;13668;52.154;5.580;2023-02-11T16:44:32;12.95;;;9.73;;
24357;SDS011;13668;52.154;5.580;2023-02-11T16:46:59;16.60;;;8.98;;
24357;SDS011;13668;52.154;5.580;2023-02-11T16:49:30;15.35;;;9.43;;
24357;SDS011;13668;52.154;5.580;2023-02-11T16:51:59;12.68;;;8.85;;
24357;SDS011;13668;52.154;5.580;2023-02-11T16:54:26;12.20;;;9.00;;
24357;SDS011;13668;52.154;5.580;2023-02-11T16:56:52;12.48;;;9.13;;
24357;SDS011;13668;52.154;5.580;2023-02-11T16:59:18;13.45;;;9.50;;
24357;SDS011;13668;52.154;5.580;2023-02-11T17:01:45;14.27;;;9.93;;
24357;SDS011;13668;52.154;5.580;2023-02-11T17:04:18;12.18;;;9.07;;
24357;SDS011;13668;52.154;5.580;2023-02-11T17:06:45;11.80;;;8.65;;